logo
Search for airport 
image banner adimage banner adimage banner ad
image banner ad

LF1301 - Martigues-Henri Fabre

Located in Martigues, France

ICAO - , IATA -

Data provided by Airmate  

General information

Coordinates: N43°25'15" E5°4'40"
Elevation is feet MSL.
 
View others Airports in Provence-Alpes-Côte-d'Azur

Operational data

Special qualification required
Current time UTC:
Current local time:
Weather at : LFML - Marseille Provence ( 11 km )
METAR: LFML 041400Z AUTO 30014KT CAVOK 26/11 Q1022 NOSIG
TAF: TAF LFML 040800Z 0409/0515 32016KT CAVOK TX27/0513Z TN14/0505Z BECMG 0418/0420 31006KT
View NOTAMs / SUP AIP / TFR affecting this airport [VIEW]
Communications frequencies: [VIEW]

Runways:

Airport contact information

Address: Martigues France

Satellite view of LF1301